Time;durP1;ratioP1;P1;durP2;ratioP2;P2;SDS_P1;SDS_P2;PMS_P1;PMS_P2;Temp;Humidity;BMP_temperature;BMP_pressure;BME280_temperature;BME280_humidity;BME280_pressure;Samples;Min_cycle;Max_cycle;Signal;HPM_P1;HPM_P2
2024/04/20 00:00:12;;;;;;;;;;;;;;;20.57;48.80;99818.75;2217634;26;5961;-73
2024/04/20 00:01:14;;;;;;;;;;;;;;;20.57;48.93;99820.88;2221992;26;2546;-73
2024/04/20 00:02:15;;;;;;;;;;;;;;;20.56;49.03;99816.50;2232472;26;2141;-73
2024/04/20 00:03:17;;;;;;;;;;;;;;;20.55;48.60;99818.66;2235073;26;2117;-73
2024/04/20 00:04:18;;;;;;;;;;;;;;;20.56;49.11;99828.00;2224690;26;2330;-73
2024/04/20 00:05:20;;;;;;;;;;;;;;;20.56;48.66;99830.88;2218180;26;2117;-73
2024/04/20 00:06:21;;;;;;;;;;;;;;;20.56;48.69;99828.00;2218966;26;2366;-73
2024/04/20 00:07:23;;;;;;;;;;;;;;;20.56;48.66;99828.00;2224690;26;2271;-71
2024/04/20 00:08:24;;;;;;;;;;;;;;;20.56;48.55;99823.00;2224025;26;2207;-73
2024/04/20 00:09:26;;;;;;;;;;;;;;;20.56;48.85;99833.75;2219864;26;2160;-73
2024/04/20 00:10:27;;;;;;;;;;;;;;;20.56;49.03;99836.66;2217880;26;2463;-73
2024/04/20 00:11:29;;;;;;;;;;;;;;;20.54;48.79;99834.44;2223490;26;2123;-73
2024/04/20 00:12:30;;;;;;;;;;;;;;;20.54;48.59;99827.94;2220983;26;2323;-73
2024/04/20 00:13:32;;;;;;;;;;;;;;;20.56;48.75;99828.00;2221133;26;2330;-73
2024/04/20 00:14:33;;;;;;;;;;;;;;;20.54;48.54;99833.69;2220185;26;2407;-73
2024/04/20 00:15:39;;;;;;;;;;;;;;;20.53;49.05;99829.38;2221524;26;2395;-72
2024/04/20 00:16:40;;;;;;;;;;;;;;;20.53;48.93;99835.84;2223224;26;2168;-73
2024/04/20 00:17:42;;;;;;;;;;;;;;;20.53;48.85;99835.13;2221263;26;2322;-73
2024/04/20 00:18:43;;;;;;;;;;;;;;;20.53;48.39;99840.88;2217863;26;2362;-73
2024/04/20 00:19:45;;;;;;;;;;;;;;;20.53;48.52;99843.75;2220788;26;2409;-73
2024/04/20 00:20:46;;;;;;;;;;;;;;;20.53;48.42;99849.50;2222709;26;2290;-73
2024/04/20 00:21:48;;;;;;;;;;;;;;;20.51;48.78;99845.16;2220267;26;2095;-73
2024/04/20 00:22:49;;;;;;;;;;;;;;;20.53;48.60;99852.38;2219811;26;2146;-74
2024/04/20 00:23:51;;;;;;;;;;;;;;;20.51;48.59;99850.91;2222927;26;2171;-73
2024/04/20 00:24:52;;;;;;;;;;;;;;;20.51;48.56;99856.66;2228577;26;2364;-73
2024/04/20 00:25:54;;;;;;;;;;;;;;;20.50;48.34;99860.94;2219147;26;2301;-73
2024/04/20 00:26:55;;;;;;;;;;;;;;;20.51;48.66;99850.91;2224839;26;2336;-73
2024/04/20 00:27:57;;;;;;;;;;;;;;;20.51;48.62;99861.66;2221281;26;2441;-73
2024/04/20 00:28:58;;;;;;;;;;;;;;;20.51;48.67;99855.91;2219239;26;2215;-73
2024/04/20 00:30:00;;;;;;;;;;;;;;;20.50;48.91;99860.19;2221056;26;2248;-73
2024/04/20 00:31:02;;;;;;;;;;;;;;;20.49;48.66;99865.22;2221402;26;6798;-73
2024/04/20 00:32:04;;;;;;;;;;;;;;;20.49;48.90;99868.09;2221992;26;2251;-73
2024/04/20 00:33:05;;;;;;;;;;;;;;;20.50;48.84;99871.69;2218303;26;2131;-72
2024/04/20 00:34:07;;;;;;;;;;;;;;;20.49;48.66;99870.97;2219296;26;2481;-73
2024/04/20 00:35:11;;;;;;;;;;;;;;;20.49;48.76;99879.59;2222354;26;2203;-73
2024/04/20 00:36:12;;;;;;;;;;;;;;;20.49;48.69;99876.72;2221713;26;2222;-73
2024/04/20 00:37:14;;;;;;;;;;;;;;;20.50;48.40;99871.69;2222835;26;2217;-73
2024/04/20 00:38:15;;;;;;;;;;;;;;;20.48;48.59;99878.13;2221615;26;2143;-74
2024/04/20 00:39:17;;;;;;;;;;;;;;;20.48;48.77;99872.38;2221601;26;2239;-73
2024/04/20 00:40:18;;;;;;;;;;;;;;;20.49;48.81;99882.47;2228405;26;2340;-73
2024/04/20 00:41:20;;;;;;;;;;;;;;;20.48;48.22;99880.28;2227653;26;2183;-73
2024/04/20 00:42:21;;;;;;;;;;;;;;;20.48;48.39;99881.00;2223172;26;2177;-74
2024/04/20 00:43:23;;;;;;;;;;;;;;;20.48;48.98;99889.63;2214235;26;2095;-74
2024/04/20 00:44:25;;;;;;;;;;;;;;;20.47;48.35;99888.16;2220843;26;2252;-73
2024/04/20 00:45:26;;;;;;;;;;;;;;;20.47;49.02;99885.28;2228100;26;2200;-73
2024/04/20 00:46:29;;;;;;;;;;;;;;;20.47;48.70;99896.06;2219303;26;2368;-73
2024/04/20 00:47:31;;;;;;;;;;;;;;;20.47;48.84;99893.19;2221775;26;2199;-73
2024/04/20 00:48:33;;;;;;;;;;;;;;;20.45;48.30;99893.84;2221758;26;2262;-73
2024/04/20 00:49:35;;;;;;;;;;;;;;;20.47;49.02;99887.41;2220668;26;2332;-73
2024/04/20 00:50:39;;;;;;;;;;;;;;;20.47;48.66;99899.66;2220952;26;2371;-73
2024/04/20 00:51:42;;;;;;;;;;;;;;;20.46;48.50;99895.31;2220792;26;2416;-73
2024/04/20 00:52:43;;;;;;;;;;;;;;;20.46;48.66;99895.31;2220932;26;2239;-73
2024/04/20 00:53:46;;;;;;;;;;;;;;;20.46;48.43;99901.06;2221353;26;2351;-73
2024/04/20 00:54:48;;;;;;;;;;;;;;;20.45;48.80;99893.84;2223048;26;1997;-73
2024/04/20 00:55:50;;;;;;;;;;;;;;;20.45;48.33;99896.72;2220354;26;2094;-72
2024/04/20 00:56:52;;;;;;;;;;;;;;;20.46;48.47;99906.09;2224015;26;2529;-74
2024/04/20 00:57:56;;;;;;;;;;;;;;;20.45;48.59;99905.34;2217080;26;2652;-73
2024/04/20 00:58:58;;;;;;;;;;;;;;;20.45;48.41;99910.38;2222009;26;2044;-73
2024/04/20 01:00:00;;;;;;;;;;;;;;;20.46;48.64;99909.69;2222478;26;2118;-73
2024/04/20 01:01:01;;;;;;;;;;;;;;;20.45;49.06;99904.63;2219966;26;6976;-73
2024/04/20 01:02:03;;;;;;;;;;;;;;;20.45;48.31;99913.97;2222452;26;2181;-73
2024/04/20 01:03:05;;;;;;;;;;;;;;;20.45;48.93;99916.84;2221524;26;2281;-73
2024/04/20 01:04:06;;;;;;;;;;;;;;;20.45;48.84;99921.88;2220544;26;2150;-73
2024/04/20 01:05:08;;;;;;;;;;;;;;;20.43;48.69;99919.69;2218249;26;2182;-73
2024/04/20 01:06:10;;;;;;;;;;;;;;;20.43;48.35;99922.56;2224562;26;2267;-74
2024/04/20 01:07:12;;;;;;;;;;;;;;;20.43;48.58;99916.81;2218786;26;2336;-73
2024/04/20 01:08:13;;;;;;;;;;;;;;;20.43;48.21;99931.19;2221901;26;2291;-73
2024/04/20 01:09:15;;;;;;;;;;;;;;;20.43;48.42;99927.53;2223818;26;2148;-73
2024/04/20 01:10:16;;;;;;;;;;;;;;;20.43;48.85;99931.19;2221771;26;2317;-73
2024/04/20 01:11:18;;;;;;;;;;;;;;;20.43;48.89;99936.19;2223654;26;2226;-72
2024/04/20 01:12:20;;;;;;;;;;;;;;;20.42;48.59;99940.47;2220708;26;2302;-73
2024/04/20 01:13:27;;;;;;;;;;;;;;;20.42;48.87;99944.06;2222691;26;2323;-73
2024/04/20 01:14:29;;;;;;;;;;;;;;;20.41;48.62;99939.75;2221333;26;2223;-73
2024/04/20 01:15:33;;;;;;;;;;;;;;;20.42;48.95;99943.34;2221503;26;2272;-73
2024/04/20 01:16:35;;;;;;;;;;;;;;;20.42;48.92;99944.06;2214801;26;2298;-73
2024/04/20 01:17:37;;;;;;;;;;;;;;;20.41;48.43;99939.75;2229882;26;2179;-74
2024/04/20 01:18:38;;;;;;;;;;;;;;;20.41;48.61;99941.84;2217373;26;2261;-73
2024/04/20 01:19:40;;;;;;;;;;;;;;;20.41;48.85;99942.63;2221560;26;2304;-73
2024/04/20 01:20:42;;;;;;;;;;;;;;;20.42;48.58;99949.09;2218027;26;2179;-73
2024/04/20 01:21:43;;;;;;;;;;;;;;;20.40;48.58;99952.63;2220872;26;2243;-72
2024/04/20 01:22:45;;;;;;;;;;;;;;;20.40;48.68;99949.75;2215911;26;2298;-72
2024/04/20 01:23:48;;;;;;;;;;;;;;;20.40;48.54;99955.50;2224916;26;2377;-73
2024/04/20 01:24:53;;;;;;;;;;;;;;;20.40;48.25;99949.75;2223707;26;2500;-73
2024/04/20 01:25:54;;;;;;;;;;;;;;;20.39;48.53;99951.19;2222784;26;2326;-73
2024/04/20 01:26:56;;;;;;;;;;;;;;;20.39;48.67;99959.81;2217927;26;2459;-73
2024/04/20 01:27:57;;;;;;;;;;;;;;;20.39;48.51;99959.81;2216339;26;2403;-73
2024/04/20 01:28:59;;;;;;;;;;;;;;;20.40;48.58;99960.53;2218580;26;2209;-73
2024/04/20 01:30:00;;;;;;;;;;;;;;;20.40;48.38;99967.00;2216997;26;2261;-73
2024/04/20 01:31:02;;;;;;;;;;;;;;;20.39;48.78;99971.31;2231141;26;6579;-73
2024/04/20 01:32:04;;;;;;;;;;;;;;;20.38;48.12;99964.06;2234437;26;2220;-73
2024/04/20 01:33:05;;;;;;;;;;;;;;;20.38;48.65;99975.56;2231047;26;2321;-74
2024/04/20 01:34:07;;;;;;;;;;;;;;;20.38;48.49;99975.56;2235923;26;2182;-73
2024/04/20 01:35:09;;;;;;;;;;;;;;;20.38;48.70;99969.81;2236695;26;2094;-73
2024/04/20 01:36:10;;;;;;;;;;;;;;;20.38;48.61;99978.44;2229758;26;2163;-72
2024/04/20 01:37:12;;;;;;;;;;;;;;;20.36;48.23;99972.63;2232596;26;2125;-73
2024/04/20 01:38:13;;;;;;;;;;;;;;;20.37;48.54;99974.09;2235857;26;2297;-73
2024/04/20 01:39:16;;;;;;;;;;;;;;;20.38;48.37;99974.84;2236375;26;2234;-73
2024/04/20 01:40:17;;;;;;;;;;;;;;;20.36;48.99;99978.38;2236783;26;2270;-72
2024/04/20 01:41:19;;;;;;;;;;;;;;;20.37;48.78;99985.59;2247088;26;1963;-72
2024/04/20 01:42:20;;;;;;;;;;;;;;;20.37;48.54;99985.59;2237323;26;2134;-73
2024/04/20 01:43:22;;;;;;;;;;;;;;;20.36;48.80;99987.00;2234851;26;2298;-72
2024/04/20 01:44:23;;;;;;;;;;;;;;;20.36;48.23;99984.13;2245085;26;2218;-73
2024/04/20 01:45:25;;;;;;;;;;;;;;;20.36;48.55;99989.88;2236211;26;2229;-72
2024/04/20 01:46:26;;;;;;;;;;;;;;;20.35;48.44;99997.03;2236848;26;2120;-72
2024/04/20 01:47:28;;;;;;;;;;;;;;;20.35;48.23;99990.56;2236222;26;2160;-74
2024/04/20 01:48:30;;;;;;;;;;;;;;;20.35;48.25;99999.91;2235766;26;2197;-72
2024/04/20 01:49:31;;;;;;;;;;;;;;;20.35;48.30;99999.91;2236456;26;2170;-73
2024/04/20 01:50:33;;;;;;;;;;;;;;;20.35;48.51;100002.06;2234260;26;2294;-73
2024/04/20 01:51:35;;;;;;;;;;;;;;;20.35;48.66;100004.94;2235446;26;2300;-73
2024/04/20 01:52:36;;;;;;;;;;;;;;;20.34;48.45;100009.97;2234323;26;2301;-72
2024/04/20 01:53:38;;;;;;;;;;;;;;;20.34;48.44;100009.97;2233389;26;2234;-72
2024/04/20 01:54:39;;;;;;;;;;;;;;;20.33;48.47;100008.47;2236852;26;2414;-73
2024/04/20 01:55:41;;;;;;;;;;;;;;;20.33;48.69;100010.63;2243936;26;2245;-73
2024/04/20 01:56:42;;;;;;;;;;;;;;;20.34;48.11;100017.81;2235235;26;2126;-73
2024/04/20 01:57:43;;;;;;;;;;;;;;;20.33;48.18;100022.84;2234937;26;2097;-73
2024/04/20 01:58:45;;;;;;;;;;;;;;;20.33;48.14;100019.97;2238315;26;2139;-73
2024/04/20 01:59:46;;;;;;;;;;;;;;;20.33;48.47;100019.97;2236925;26;2175;-73
2024/04/20 02:00:48;;;;;;;;;;;;;;;20.33;48.65;100025.72;2236219;26;5962;-73
2024/04/20 02:01:51;;;;;;;;;;;;;;;20.33;48.34;100025.00;2237818;26;2315;-73
2024/04/20 02:02:52;;;;;;;;;;;;;;;20.33;48.55;100030.75;2235035;26;2176;-73
2024/04/20 02:03:54;;;;;;;;;;;;;;;20.31;48.88;100028.53;2234993;26;2309;-73
2024/04/20 02:04:56;;;;;;;;;;;;;;;20.32;48.32;100030.00;2235952;26;2216;-73
2024/04/20 02:05:57;;;;;;;;;;;;;;;20.32;48.70;100035.00;2238824;26;2169;-73
2024/04/20 02:06:58;;;;;;;;;;;;;;;20.32;48.67;100047.25;2236724;26;2130;-72
2024/04/20 02:08:00;;;;;;;;;;;;;;;20.30;48.70;100033.53;2233231;26;2506;-73
2024/04/20 02:09:02;;;;;;;;;;;;;;;20.32;48.14;100037.88;2234605;26;2317;-73
2024/04/20 02:10:03;;;;;;;;;;;;;;;20.31;48.75;100040.03;2235565;26;2204;-73
2024/04/20 02:11:05;;;;;;;;;;;;;;;20.32;48.79;100044.38;2233012;26;2540;-72
2024/04/20 02:12:06;;;;;;;;;;;;;;;20.30;48.58;100045.06;2236610;26;2116;-73
2024/04/20 02:13:08;;;;;;;;;;;;;;;20.31;48.60;100048.66;2241028;26;2312;-73
2024/04/20 02:14:09;;;;;;;;;;;;;;;20.30;48.49;100047.19;2237784;26;2382;-73
2024/04/20 02:15:11;;;;;;;;;;;;;;;20.30;48.35;100055.81;2237586;26;2180;-72
2024/04/20 02:16:12;;;;;;;;;;;;;;;20.29;48.66;100052.22;2236458;26;2143;-73
2024/04/20 02:17:14;;;;;;;;;;;;;;;20.30;48.93;100056.53;2236395;26;2210;-73
2024/04/20 02:18:15;;;;;;;;;;;;;;;20.30;48.92;100061.56;2240974;26;2311;-73
2024/04/20 02:19:17;;;;;;;;;;;;;;;20.29;48.90;100066.59;2233609;26;2260;-72
2024/04/20 02:20:19;;;;;;;;;;;;;;;20.30;48.43;100073.06;2237353;26;2595;-73
2024/04/20 02:21:20;;;;;;;;;;;;;;;20.29;48.54;100068.72;2236080;26;2321;-73
2024/04/20 02:22:22;;;;;;;;;;;;;;;20.29;48.36;100071.59;2234057;26;2193;-73
2024/04/20 02:23:23;;;;;;;;;;;;;;;20.29;48.50;100080.22;2240474;26;2236;-72
2024/04/20 02:24:24;;;;;;;;;;;;;;;20.29;48.68;100074.44;2235994;26;2305;-73
2024/04/20 02:25:26;;;;;;;;;;;;;;;20.29;48.59;100077.31;2234184;26;2274;-73
2024/04/20 02:26:27;;;;;;;;;;;;;;;20.28;48.25;100081.63;2233902;26;2294;-73
2024/04/20 02:27:29;;;;;;;;;;;;;;;20.28;48.56;100082.34;2237421;26;2230;-74
2024/04/20 02:28:30;;;;;;;;;;;;;;;20.28;48.64;100087.38;2236743;26;2133;-73
2024/04/20 02:29:32;;;;;;;;;;;;;;;20.27;48.73;100086.63;2241567;26;2178;-73
2024/04/20 02:30:33;;;;;;;;;;;;;;;20.27;48.68;100098.13;2228292;26;6908;-73
2024/04/20 02:31:35;;;;;;;;;;;;;;;20.27;48.72;100083.00;2235240;26;2160;-73
2024/04/20 02:32:36;;;;;;;;;;;;;;;20.28;48.88;100098.88;2232921;26;2159;-73
2024/04/20 02:33:39;;;;;;;;;;;;;;;20.26;48.62;100105.28;2233902;26;2457;-73
2024/04/20 02:34:41;;;;;;;;;;;;;;;20.27;48.09;100103.13;2234761;26;2303;-73
2024/04/20 02:35:42;;;;;;;;;;;;;;;20.27;48.46;100117.50;2229522;26;2355;-72
2024/04/20 02:36:44;;;;;;;;;;;;;;;20.27;48.53;100114.63;2230099;26;2214;-72
2024/04/20 02:37:45;;;;;;;;;;;;;;;20.26;48.40;100125.41;2234838;26;2248;-73
2024/04/20 02:38:47;;;;;;;;;;;;;;;20.27;48.63;100103.13;2234497;26;2371;-73
2024/04/20 02:39:48;;;;;;;;;;;;;;;20.26;48.61;100113.16;2235345;26;2212;-73
2024/04/20 02:40:51;;;;;;;;;;;;;;;20.25;48.51;100123.22;2233134;26;2191;-72
2024/04/20 02:41:53;;;;;;;;;;;;;;;20.25;48.44;100129.69;2229176;26;2362;-73
2024/04/20 02:42:54;;;;;;;;;;;;;;;20.25;48.56;100126.81;2236103;26;2223;-73
2024/04/20 02:43:56;;;;;;;;;;;;;;;20.26;48.41;100125.41;2235120;26;2221;-73
2024/04/20 02:44:58;;;;;;;;;;;;;;;20.27;48.19;100129.75;2233145;26;2197;-72
2024/04/20 02:46:01;;;;;;;;;;;;;;;20.27;48.17;100134.75;2234988;26;2516;-73
2024/04/20 02:47:02;;;;;;;;;;;;;;;20.26;48.43;100130.41;2233817;26;2296;-73
2024/04/20 02:48:04;;;;;;;;;;;;;;;20.26;48.29;100131.16;2233105;26;2233;-73
2024/04/20 02:49:05;;;;;;;;;;;;;;;20.28;48.50;100136.25;2234816;26;2317;-73
2024/04/20 02:50:07;;;;;;;;;;;;;;;20.29;48.58;100140.56;2227857;26;2304;-73
2024/04/20 02:51:09;;;;;;;;;;;;;;;20.31;48.36;100149.28;2239175;26;2435;-72
2024/04/20 02:52:10;;;;;;;;;;;;;;;20.32;47.85;100144.25;2235741;26;2779;-73
2024/04/20 02:53:11;;;;;;;;;;;;;;;20.34;48.36;100150.09;2235595;26;2261;-73
2024/04/20 02:54:14;;;;;;;;;;;;;;;20.33;48.13;100157.97;2236310;26;2274;-72
2024/04/20 02:55:15;;;;;;;;;;;;;;;20.34;48.24;100153.72;2238068;26;2208;-72
2024/04/20 02:56:17;;;;;;;;;;;;;;;20.35;48.36;100158.06;2234450;26;2137;-72
2024/04/20 02:57:18;;;;;;;;;;;;;;;20.36;48.28;100162.38;2234300;26;2241;-72
2024/04/20 02:58:19;;;;;;;;;;;;;;;20.37;48.72;100166.75;2226902;26;2217;-72
2024/04/20 02:59:21;;;;;;;;;;;;;;;20.38;48.58;100179.72;2231963;26;2360;-73
2024/04/20 03:00:22;;;;;;;;;;;;;;;20.38;48.76;100161.72;2228070;26;6052;-73
2024/04/20 03:01:24;;;;;;;;;;;;;;;20.39;48.61;100178.34;2214668;26;2246;-73
2024/04/20 03:02:25;;;;;;;;;;;;;;;20.39;48.86;100169.72;2217315;26;2333;-73
2024/04/20 03:03:29;;;;;;;;;;;;;;;20.39;48.30;100172.56;2213384;26;2320;-73
2024/04/20 03:04:30;;;;;;;;;;;;;;;20.40;49.04;100179.78;2221954;26;2260;-73
2024/04/20 03:05:32;;;;;;;;;;;;;;;20.39;48.70;100184.09;2219627;26;2297;-73
2024/04/20 03:06:33;;;;;;;;;;;;;;;20.40;48.37;100179.06;2222360;26;2174;-73
2024/04/20 03:07:35;;;;;;;;;;;;;;;20.40;48.77;100184.81;2226296;26;2146;-73
2024/04/20 03:08:36;;;;;;;;;;;;;;;20.41;48.91;100189.16;2213031;26;2231;-73
2024/04/20 03:09:38;;;;;;;;;;;;;;;20.40;48.80;100191.28;2214811;26;2310;-72
2024/04/20 03:10:39;;;;;;;;;;;;;;;20.40;49.09;100191.28;2221249;26;2258;-72
2024/04/20 03:11:41;;;;;;;;;;;;;;;20.40;49.24;100194.16;2222429;26;2410;-73
2024/04/20 03:12:43;;;;;;;;;;;;;;;20.39;48.93;100198.47;2218054;26;2252;-73
2024/04/20 03:13:44;;;;;;;;;;;;;;;20.40;48.63;100196.31;2219238;26;2275;-73
2024/04/20 03:14:45;;;;;;;;;;;;;;;20.40;49.29;100205.66;2224972;26;2309;-73
2024/04/20 03:15:57;;;;;;;;;;;;;;;20.40;48.88;100197.03;2216417;26;2234;-72
2024/04/20 03:16:58;;;;;;;;;;;;;;;20.40;48.99;100211.41;2218108;26;2194;-73
2024/04/20 03:18:00;;;;;;;;;;;;;;;20.40;48.57;100211.41;2213410;26;2306;-73
2024/04/20 03:19:02;;;;;;;;;;;;;;;20.41;48.90;100204.28;2217765;26;2359;-73
2024/04/20 03:20:04;;;;;;;;;;;;;;;20.41;49.11;100209.28;2210621;26;2164;-73
2024/04/20 03:21:06;;;;;;;;;;;;;;;20.41;49.38;100210.03;2221141;26;2364;-74
2024/04/20 03:22:07;;;;;;;;;;;;;;;20.41;48.59;100215.78;2211057;26;2267;-73
2024/04/20 03:23:09;;;;;;;;;;;;;;;20.41;48.72;100215.78;2213210;26;2179;-73
2024/04/20 03:24:10;;;;;;;;;;;;;;;20.41;48.71;100218.66;2216550;26;2257;-73
2024/04/20 03:25:12;;;;;;;;;;;;;;;20.42;48.95;100228.03;2213217;26;2180;-74
2024/04/20 03:26:13;;;;;;;;;;;;;;;20.42;49.41;100228.75;2215328;26;2371;-75
2024/04/20 03:27:15;;;;;;;;;;;;;;;20.40;48.88;100219.31;2221934;26;2321;-74
2024/04/20 03:28:16;;;;;;;;;;;;;;;20.44;49.16;100234.56;2222373;26;2448;-73
2024/04/20 03:29:18;;;;;;;;;;;;;;;20.44;49.17;100230.97;2218415;26;2309;-74
2024/04/20 03:30:19;;;;;;;;;;;;;;;20.44;48.79;100231.72;2217684;26;5916;-73
2024/04/20 03:31:21;;;;;;;;;;;;;;;20.43;49.13;100230.25;2216152;26;2220;-73
2024/04/20 03:32:22;;;;;;;;;;;;;;;20.42;48.67;100237.38;2215932;26;2383;-73
2024/04/20 03:33:28;;;;;;;;;;;;;;;20.42;48.42;100240.25;2214262;26;2447;-73
2024/04/20 03:34:30;;;;;;;;;;;;;;;20.42;48.97;100246.00;2214201;26;2296;-73
2024/04/20 03:35:31;;;;;;;;;;;;;;;20.44;49.28;100242.47;2216997;26;2300;-73
2024/04/20 03:36:33;;;;;;;;;;;;;;;20.43;49.24;100250.38;2217090;26;2268;-73
2024/04/20 03:37:34;;;;;;;;;;;;;;;20.44;49.53;100253.97;2219902;26;2185;-73
2024/04/20 03:38:36;;;;;;;;;;;;;;;20.43;49.79;100247.50;2219807;26;2177;-73
2024/04/20 03:39:37;;;;;;;;;;;;;;;20.44;49.64;100254.72;2218411;26;2145;-73
2024/04/20 03:40:39;;;;;;;;;;;;;;;20.45;49.55;100255.44;2217119;26;2242;-73
2024/04/20 03:41:42;;;;;;;;;;;;;;;20.44;49.17;100260.47;2216672;26;2274;-72
2024/04/20 03:42:43;;;;;;;;;;;;;;;20.44;49.30;100263.34;2220561;26;2120;-73
2024/04/20 03:43:45;;;;;;;;;;;;;;;20.44;49.29;100260.47;2221461;26;2130;-73
2024/04/20 03:44:46;;;;;;;;;;;;;;;20.46;49.70;100268.44;2215689;26;2169;-73
2024/04/20 03:45:49;;;;;;;;;;;;;;;20.44;49.73;100271.97;2217522;26;2252;-73
2024/04/20 03:46:50;;;;;;;;;;;;;;;20.44;49.57;100266.22;2214734;26;2160;-74
2024/04/20 03:47:52;;;;;;;;;;;;;;;20.45;49.75;100272.69;2220588;26;2132;-73
2024/04/20 03:48:53;;;;;;;;;;;;;;;20.45;49.71;100279.19;2220171;26;1974;-73
2024/04/20 03:49:55;;;;;;;;;;;;;;;20.45;49.67;100276.31;2213994;26;2140;-73
2024/04/20 03:50:57;;;;;;;;;;;;;;;20.45;49.91;100273.44;2211723;26;2140;-73
2024/04/20 03:51:58;;;;;;;;;;;;;;;20.45;50.10;100276.31;2217459;26;2331;-72
2024/04/20 03:53:01;;;;;;;;;;;;;;;20.45;50.07;100284.94;2219653;26;2041;-73
2024/04/20 03:54:03;;;;;;;;;;;;;;;20.45;49.80;100290.69;2212460;26;2239;-73
2024/04/20 03:55:04;;;;;;;;;;;;;;;20.46;49.74;100289.28;2216486;26;2308;-73
2024/04/20 03:56:06;;;;;;;;;;;;;;;20.46;49.95;100297.94;2213463;26;2253;-73
2024/04/20 03:57:07;;;;;;;;;;;;;;;20.46;49.74;100292.16;2216789;26;2102;-64
2024/04/20 03:58:09;;;;;;;;;;;;;;;20.47;49.61;100293.63;2217477;26;2103;-71
2024/04/20 03:59:10;;;;;;;;;;;;;;;20.47;49.58;100298.66;2214573;26;2243;-66
2024/04/20 04:00:12;;;;;;;;;;;;;;;20.47;49.45;100305.13;2214016;26;6496;-66
2024/04/20 04:01:13;;;;;;;;;;;;;;;20.48;49.55;100303.03;2209891;26;2392;-64
2024/04/20 04:02:15;;;;;;;;;;;;;;;20.48;49.97;100303.03;2214118;26;2260;-64
2024/04/20 04:03:22;;;;;;;;;;;;;;;20.49;49.89;100313.13;2215444;26;2152;-64
2024/04/20 04:04:24;;;;;;;;;;;;;;;20.48;50.17;100308.78;2213834;26;2338;-64
2024/04/20 04:05:27;;;;;;;;;;;;;;;20.48;50.38;100309.50;2216465;26;2292;-64
2024/04/20 04:06:28;;;;;;;;;;;;;;;20.48;50.04;100312.38;2218780;26;1922;-64
2024/04/20 04:07:30;;;;;;;;;;;;;;;20.48;50.27;100323.88;2217349;26;2098;-64
2024/04/20 04:08:32;;;;;;;;;;;;;;;20.49;50.31;100327.50;2216957;26;2150;-64
2024/04/20 04:09:35;;;;;;;;;;;;;;;20.48;49.72;100323.16;2215805;26;2314;-64
2024/04/20 04:10:37;;;;;;;;;;;;;;;20.47;50.62;100321.66;2216297;26;2239;-63
2024/04/20 04:11:39;;;;;;;;;;;;;;;20.48;50.07;100334.66;2212975;26;2479;-64
2024/04/20 04:12:40;;;;;;;;;;;;;;;20.47;50.07;100328.16;2217277;26;2143;-64
2024/04/20 04:13:42;;;;;;;;;;;;;;;20.48;50.24;100341.16;2212236;26;2159;-64
2024/04/20 04:14:44;;;;;;;;;;;;;;;20.48;49.82;100346.91;2213822;26;2185;-63
2024/04/20 04:15:46;;;;;;;;;;;;;;;20.47;50.64;100339.66;2217292;26;2244;-64
2024/04/20 04:16:48;;;;;;;;;;;;;;;20.48;50.28;100349.78;2220065;26;2163;-64
2024/04/20 04:17:50;;;;;;;;;;;;;;;20.48;50.58;100346.91;2211891;26;2094;-64
2024/04/20 04:18:51;;;;;;;;;;;;;;;20.48;50.17;100358.41;2212545;26;2268;-64
2024/04/20 04:19:53;;;;;;;;;;;;;;;20.49;50.44;100353.38;2211257;26;2574;-64
2024/04/20 04:20:54;;;;;;;;;;;;;;;20.48;49.80;100352.66;2219010;26;2307;-64
2024/04/20 04:21:58;;;;;;;;;;;;;;;20.47;50.06;100356.91;2219650;26;2048;-64
2024/04/20 04:23:02;;;;;;;;;;;;;;;20.48;50.51;100361.28;2215698;26;2307;-64
2024/04/20 04:24:03;;;;;;;;;;;;;;;20.49;50.43;100364.88;2216981;26;2417;-64
2024/04/20 04:25:05;;;;;;;;;;;;;;;20.49;49.64;100368.50;2214200;26;2229;-63
2024/04/20 04:26:06;;;;;;;;;;;;;;;20.49;49.68;100374.25;2211562;26;2407;-64
2024/04/20 04:27:12;;;;;;;;;;;;;;;20.50;50.22;100375.75;2211958;26;2211;-64
2024/04/20 04:28:13;;;;;;;;;;;;;;;20.50;50.24;100375.75;2211936;26;2211;-64
2024/04/20 04:29:15;;;;;;;;;;;;;;;20.50;49.72;100378.59;2222157;26;2134;-64
2024/04/20 04:30:16;;;;;;;;;;;;;;;20.50;49.40;100384.38;2220685;26;5913;-64
2024/04/20 04:31:19;;;;;;;;;;;;;;;20.51;49.81;100385.09;2223798;26;2087;-64
2024/04/20 04:32:20;;;;;;;;;;;;;;;20.51;49.32;100391.56;2227911;26;2270;-64
2024/04/20 04:33:22;;;;;;;;;;;;;;;20.51;50.19;100402.34;2221064;26;2107;-64
2024/04/20 04:34:23;;;;;;;;;;;;;;;20.51;50.08;100402.34;2221999;26;2300;-64
2024/04/20 04:35:27;;;;;;;;;;;;;;;20.52;49.97;100403.81;2221096;26;2177;-64
2024/04/20 04:36:28;;;;;;;;;;;;;;;20.51;49.99;100405.97;2218145;26;2232;-64
2024/04/20 04:37:30;;;;;;;;;;;;;;;20.51;50.06;100408.09;2226325;26;2080;-63
2024/04/20 04:38:31;;;;;;;;;;;;;;;20.51;49.56;100408.84;2223962;26;2196;-64
2024/04/20 04:39:33;;;;;;;;;;;;;;;20.51;49.64;100414.59;2221037;26;2365;-64
2024/04/20 04:40:34;;;;;;;;;;;;;;;20.49;49.58;100408.75;2226351;26;2177;-64
2024/04/20 04:41:36;;;;;;;;;;;;;;;20.51;49.87;100417.47;2228936;26;2205;-63
2024/04/20 04:42:37;;;;;;;;;;;;;;;20.51;50.05;100425.38;2222388;26;2115;-64
2024/04/20 04:43:39;;;;;;;;;;;;;;;20.50;50.23;100418.88;2223394;26;2154;-64
2024/04/20 04:44:40;;;;;;;;;;;;;;;20.51;50.20;100436.88;2223262;26;2268;-63
2024/04/20 04:45:42;;;;;;;;;;;;;;;20.51;50.28;100431.84;2223968;26;2350;-64
2024/04/20 04:46:43;;;;;;;;;;;;;;;20.51;50.36;100431.13;2222191;26;2302;-64
2024/04/20 04:47:45;;;;;;;;;;;;;;;20.51;49.90;100431.13;2222771;26;2126;-63
2024/04/20 04:48:46;;;;;;;;;;;;;;;20.53;49.15;100441.97;2215559;26;2259;-64
2024/04/20 04:49:48;;;;;;;;;;;;;;;20.51;49.68;100437.59;2233761;26;2309;-64
2024/04/20 04:50:50;;;;;;;;;;;;;;;20.53;49.54;100444.84;2222243;26;2227;-64
2024/04/20 04:51:51;;;;;;;;;;;;;;;20.54;50.12;100443.44;2221542;26;2284;-64
2024/04/20 04:52:53;;;;;;;;;;;;;;;20.53;49.77;100451.34;2218494;26;2350;-64
2024/04/20 04:53:54;;;;;;;;;;;;;;;20.53;49.84;100453.47;2223059;26;2396;-64
2024/04/20 04:54:56;;;;;;;;;;;;;;;20.53;49.77;100450.59;2223476;26;2243;-64
2024/04/20 04:55:57;;;;;;;;;;;;;;;20.53;49.68;100459.22;2217005;26;2459;-64
2024/04/20 04:56:59;;;;;;;;;;;;;;;20.55;49.29;100465.78;2223422;26;2246;-64
2024/04/20 04:58:00;;;;;;;;;;;;;;;20.54;49.92;100454.94;2222551;26;2498;-64
2024/04/20 04:59:06;;;;;;;;;;;;;;;20.54;49.62;100469.31;2222826;26;2279;-64
2024/04/20 05:00:09;;;;;;;;;;;;;;;20.55;49.86;100465.03;2218629;26;6022;-64
2024/04/20 05:01:10;;;;;;;;;;;;;;;20.54;50.38;100472.19;2237228;26;2159;-63
2024/04/20 05:02:12;;;;;;;;;;;;;;;20.53;50.23;100474.34;2233867;26;2233;-64
2024/04/20 05:03:13;;;;;;;;;;;;;;;20.54;50.07;100470.06;2232196;26;2211;-63
2024/04/20 05:04:15;;;;;;;;;;;;;;;20.53;50.24;100480.09;2231606;26;2230;-64
2024/04/20 05:05:18;;;;;;;;;;;;;;;20.54;50.40;100480.81;2228143;26;2427;-64
2024/04/20 05:06:19;;;;;;;;;;;;;;;20.53;50.09;100473.63;2236215;26;2290;-64
2024/04/20 05:07:21;;;;;;;;;;;;;;;20.53;50.22;100488.72;2234455;26;2221;-63
2024/04/20 05:08:26;;;;;;;;;;;;;;;20.53;49.73;100490.88;2238254;26;2329;-64
2024/04/20 05:09:27;;;;;;;;;;;;;;;20.53;49.84;100490.88;2238340;26;2443;-64
2024/04/20 05:10:29;;;;;;;;;;;;;;;20.53;49.30;100490.88;2232992;26;2348;-64
2024/04/20 05:11:30;;;;;;;;;;;;;;;20.54;49.65;100492.34;2229254;26;2366;-64
2024/04/20 05:12:32;;;;;;;;;;;;;;;20.55;49.39;100499.56;2236037;26;2128;-64
2024/04/20 05:13:34;;;;;;;;;;;;;;;20.55;49.77;100499.56;2234698;26;2482;-64
2024/04/20 05:14:36;;;;;;;;;;;;;;;20.55;49.79;100499.56;2235699;26;2205;-64
2024/04/20 05:15:37;;;;;;;;;;;;;;;20.54;50.22;100506.72;2228213;26;2117;-64
2024/04/20 05:16:40;;;;;;;;;;;;;;;20.55;49.87;100502.44;2233284;26;2132;-64
2024/04/20 05:17:41;;;;;;;;;;;;;;;20.56;49.77;100515.44;2232214;26;2149;-64
2024/04/20 05:18:43;;;;;;;;;;;;;;;20.54;49.80;100521.09;2235624;26;2220;-63
2024/04/20 05:19:45;;;;;;;;;;;;;;;20.56;49.71;100518.31;2235395;26;2211;-64
2024/04/20 05:20:46;;;;;;;;;;;;;;;20.55;49.54;100523.31;2233806;26;2129;-64
2024/04/20 05:21:47;;;;;;;;;;;;;;;20.56;49.87;100515.44;2234581;26;2248;-64
2024/04/20 05:22:49;;;;;;;;;;;;;;;20.56;49.55;100524.06;2236326;26;2134;-64